Kasugai, Japan
Current Conditions -  °F | °C
As of 2:00 AM on Friday 24 Oct 2014 (Local Time) from RJGG Reporting Station
Broken Clouds Broken Clouds  
Wind Chill: 61°   Ceiling: 5000
Heat Index: 61°   Visibility: 6mi
Dew Point: 54°   Wind: 3mph
Humidity: 77%   Direction: 300°WNW
Pressure: 30.09"   Gusts: NA
Location:  35.24°N, 136.98°E
Report Text: RJGG 231700Z 30003KT 260V330 9999 FEW025 BKN050 16/12 Q1019 NOSIG
Loading
Personal Weather Stations






























Interactive Weather Map
Tropical Storm Tracking
New forecast layout! Learn more

10-Day Weather Forecast

Advertisements
Track Severe Weather on mobile